Tuesday, November 21, 2017, 3:42 PM GMT
Back to Local

CYZX, Greenwood, N. S.

Location: , , Canada Lat: 44.983
Local Time: 3:42 PM GMT (15:42 GMT) Lon: -64.917
Time Zone: GMT Elev: 91 ft

Show me the last for .
Show Decoded

2017-11-21 15:00 METAR CYZX 211500Z 26016KT 15SM FEW020 M01/M04 A3015 RMK SC1 WNDY HILL UNAVBL
                 SLP212 =
2017-11-21 14:00 METAR CYZX 211400Z 26010G16KT 15SM SCT026 M02/M06 A3014 RMK SC3 WNDY HILL UNAVBL
                 SLP208 =
2017-11-21 13:00 METAR CYZX 211300Z 26012G18KT 15SM BKN026 M03/M09 A3013 RMK SC5 WNDY HILL UNAVBL
                 SLP203 =
2017-11-21 12:00 METAR CYZX 211200Z CCA 27013G18KT 15SM BKN027 M05/M09 A3010 RMK SC5 WNDY HILL
                 UNAVBL SLP195 =
2017-11-21 11:00 METAR CYZX 211100Z 27014G20KT 15SM BKN027 M05/M08 A3009 RMK SC6 WNDY HILL UNAVBL
                 SLP190 =
2017-11-21 10:33 METAR CYZX 211033Z 27012G19KT 12SM BKN030 M05/M08 A3008 RMK SC6 WNDY HILL UNAVBL
                 SLP186 =
2017-11-21 10:00 METAR CYZX 211000Z 27013G22KT 10SM -SHSN BKN024 M05/M08 A3005 RMK SC6 WNDY HILL
                 UNAVBL SLP178 =
2017-11-21 09:00 METAR CYZX 210900Z 27012G21KT 10SM -SHSN OVC024 M04/M07 A3003 RMK SC8 WNDY HILL
                 UNAVBL SLP171 =
2017-11-21 08:00 METAR CYZX 210800Z 27018KT 15SM BKN024 M04/M08 A3000 RMK SC7 WNDY HILL UNAVBL
                 SLP160 =
2017-11-21 07:49 METAR CYZX 210749Z 27012G22KT 15SM BKN023 M04/M08 A3000 RMK SC7 WNDY HILL UNAVBL
                 SLP160 =
2017-11-21 07:00 METAR CYZX 210700Z 28015G24KT 12SM -SHSN BKN026 M04/M08 A2998 RMK SC7 WNDY HILL
                 UNAVBL SLP153 =
2017-11-21 06:00 METAR CYZX 210600Z 29014G24KT 12SM -SHSN BKN030 M04/M08 A2993 RMK SC6 WNDY HILL
                 UNAVBL SLP136 =
2017-11-21 05:00 METAR CYZX 210500Z 28015G21KT 12SM -SHSN BKN030 M04/M09 A2991 RMK SC6 WNDY HILL
                 UNAVBL SLP129 =
2017-11-21 04:00 METAR CYZX 210400Z 27019KT 12SM -SHSN BKN030 M03/M09 A2987 RMK SC7 WNDY HILL
                 UNAVBL SLP118 =
2017-11-21 03:00 METAR CYZX 210300Z 27018G25KT 12SM -SHSN BKN035 M03/M08 A2984 RMK SC6 WNDY HILL
                 UNAVBL SLP108 =
2017-11-21 02:00 METAR CYZX 210200Z 29016G24KT 10SM -SHSN BKN038 M02/M06 A2981 RMK SC7 WNDY HILL
                 UNAVBL SLP096 =
2017-11-21 01:00 METAR CYZX 210100Z 29019G29KT 10SM BKN050 M01/M03 A2978 RMK SC6 WNDY HILL UNAVBL
                 SLP087 =
2017-11-21 00:00 METAR CYZX 210000Z 29019G26KT 6SM -SHSN FEW016 OVC040 M01/M03 A2974 RMK SC2SC6
                 WNDY HILL UNAVBL SLP073 =
2017-11-20 23:00 METAR CYZX 202300Z 27017G22KT 6SM -SHSN FEW016 OVC035 M01/M02 A2971 RMK SC2SC6
                 WNDY HILL UNAVBL SLP062 =
2017-11-20 22:48 METAR CYZX 202248Z 27016KT 6SM -SHSN SCT016 OVC040 M01/M03 A2970 RMK SC3SC5 WNDY
                 HILL UNAVBL SLP060 =
2017-11-20 22:00 METAR CYZX 202200Z 26016G21KT 3SM -SHSN FEW004 OVC018 M01/M02 A2969 RMK SF2SC6
                 /S01/ WNDY HILL UNAVBL SLP057 =
2017-11-20 21:55 METAR CYZX 202155Z 25018G24KT 3SM -SHSN FEW004 BKN016 OVC030 M01/M02 A2969 RMK
                 SF2SC3SC2 WNDY HILL UNAVBL SLP056 =
2017-11-20 21:00 METAR CYZX 202100Z 24010G17KT 8SM -SHSN SCT020 OVC040 00/M03 A2967 RMK SC3SC5
                 VIS LWR W WNDY HILL UNAVBL SLP049 =
2017-11-20 20:28 METAR CYZX 202028Z 26016G27KT 4SM -SHSN FEW008 SCT018 OVC026 M01/M05 A2966 RMK
                 SF2SC2SC4 WNDY HILL UNAVBL SLP046 =
2017-11-20 20:00 METAR CYZX 202000Z 26016KT 6SM -SHSN BKN045 01/M04 A2965 RMK SC7 VIS LWR W WNDY
                 HILL UNAVBL SLP041 =
2017-11-20 19:29 METAR CYZX 201929Z 28011G21KT 15SM -SHGS BKN050 BKN070 01/M05 A2964 RMK SC6AC2
                 WNDY HILL UNAVBL SLP037 =
2017-11-20 19:00 METAR CYZX 201900Z 28014G22KT 15SM BKN040 02/M03 A2962 RMK SC7 WNDY HILL UNAVBL
                 SLP032 =
2017-11-20 18:00 METAR CYZX 201800Z 27015G25KT 15SM BKN035 01/M03 A2959 RMK SC7 WNDY HILL UNAVBL
                 SLP022 =
2017-11-20 17:00 METAR CYZX 201700Z 27022G28KT 15SM BKN035 01/M03 A2958 RMK SC7 /S02/ WNDY HILL
                 UNAVBL SLP018 =
2017-11-20 16:43 METAR CYZX 201643Z 28016G26KT 12SM BKN045 01/M02 A2958 RMK SC7 WNDY HILL UNAVBL
                 SLP017 =
2017-11-20 16:29 METAR CYZX 201629Z 25016KT 7SM -SHSN FEW012 BKN035 01/M02 A2957 RMK SC2SC6 WNDY
                 HILL UNAVBL SLP015 =
2017-11-20 16:15 METAR CYZX 201615Z 25012G18KT 1 1/2SM -SHSN FEW013 OVC027 01/M02 A2957 RMK
                 SC2SC6 WNDY HILL UNAVBL SLP014 =
2017-11-20 16:00 METAR CYZX 201600Z 23014KT 4SM -SHSN OVC031 02/M02 A2957 RMK SC8 VIS LWR W WNDY
                 HILL UNAVBL SLP013 =

Support USWX by starting your Amazon purchase here.